createdAt,value
2023-04-20T00:05:28.952Z,12.45
2023-04-20T00:15:31.245Z,10.57
2023-04-20T00:25:33.356Z,10.00
2023-04-20T00:35:37.304Z,9.40
2023-04-20T00:45:39.284Z,11.68
2023-04-20T00:55:43.852Z,8.82
2023-04-20T01:05:45.884Z,9.38
2023-04-20T01:15:49.240Z,8.52
2023-04-20T01:25:51.174Z,9.15
2023-04-20T01:35:53.533Z,8.63
2023-04-20T01:45:55.536Z,8.25
2023-04-20T01:55:57.481Z,8.57
2023-04-20T02:05:59.480Z,8.15
2023-04-20T02:16:01.583Z,8.57
2023-04-20T02:26:03.727Z,8.90
2023-04-20T02:36:06.043Z,9.48
2023-04-20T02:46:08.410Z,9.13
2023-04-20T02:56:10.316Z,9.07
2023-04-20T03:06:15.876Z,10.63
2023-04-20T03:16:18.424Z,9.27
2023-04-20T03:26:24.504Z,9.38
2023-04-20T03:36:28.609Z,8.23
2023-04-20T03:46:30.623Z,9.43
2023-04-20T03:56:34.998Z,9.27
2023-04-20T04:06:37.022Z,9.23
2023-04-20T04:16:38.961Z,9.70
2023-04-20T04:26:41.172Z,10.80
2023-04-20T04:36:44.485Z,10.02
2023-04-20T04:46:47.774Z,10.43
2023-04-20T04:56:50.971Z,11.20
2023-04-20T05:06:52.993Z,10.40
2023-04-20T05:16:55.095Z,11.95
2023-04-20T05:26:56.993Z,12.10
2023-04-20T05:36:59.779Z,13.60
2023-04-20T05:47:06.597Z,11.10
2023-04-20T05:57:08.795Z,10.20
2023-04-20T06:07:13.011Z,9.55
2023-04-20T06:17:17.065Z,9.73
2023-04-20T06:27:21.205Z,9.50
2023-04-20T06:37:24.283Z,9.30
2023-04-20T06:47:34.287Z,8.80
2023-04-20T06:57:38.866Z,7.93
2023-04-20T07:07:45.292Z,6.40
2023-04-20T07:17:47.461Z,7.20
2023-04-20T07:27:50.538Z,6.28
2023-04-20T07:37:52.667Z,5.10
2023-04-20T07:47:55.806Z,5.13
2023-04-20T07:57:58.156Z,4.50
2023-04-20T08:08:02.174Z,4.57
2023-04-20T08:18:06.347Z,5.95
2023-04-20T08:28:15.348Z,4.03
2023-04-20T08:38:32.799Z,3.65
2023-04-20T08:48:37.627Z,3.97
2023-04-20T08:58:42.533Z,4.43
2023-04-20T09:08:46.668Z,3.83
2023-04-20T09:18:58.530Z,3.30
2023-04-20T09:29:02.638Z,2.80
2023-04-20T09:39:11.779Z,3.10
2023-04-20T09:49:15.097Z,2.25
2023-04-20T09:59:19.873Z,2.65
2023-04-20T10:09:29.200Z,2.60
2023-04-20T10:19:40.785Z,2.92
2023-04-20T10:29:42.823Z,3.20
2023-04-20T10:39:47.423Z,2.53
2023-04-20T10:49:49.446Z,2.67
2023-04-20T10:59:51.356Z,2.58
2023-04-20T11:09:57.009Z,2.92
2023-04-20T11:20:14.168Z,2.90
2023-04-20T11:30:16.401Z,2.63
2023-04-20T11:40:18.472Z,3.30
2023-04-20T11:50:22.408Z,2.28
2023-04-20T12:00:27.493Z,2.67
2023-04-20T12:10:29.724Z,2.90
2023-04-20T12:20:31.762Z,3.92
2023-04-20T12:30:35.567Z,2.88
2023-04-20T12:40:37.520Z,2.92
2023-04-20T12:50:39.469Z,3.05
2023-04-20T13:00:43.176Z,2.90
2023-04-20T13:10:45.340Z,3.00
2023-04-20T13:20:47.479Z,3.35
2023-04-20T13:30:49.484Z,3.38
2023-04-20T13:40:51.488Z,3.97
2023-04-20T13:50:54.500Z,3.85
2023-04-20T14:00:56.636Z,3.80
2023-04-20T14:10:58.719Z,3.80
2023-04-20T14:21:01.025Z,2.95
2023-04-20T14:31:03.328Z,1.63
2023-04-20T14:41:05.713Z,3.88
2023-04-20T14:51:07.681Z,3.35
2023-04-20T15:01:11.530Z,3.72
2023-04-20T15:11:14.532Z,3.85
2023-04-20T15:21:16.704Z,4.32
2023-04-20T15:31:19.503Z,5.38
2023-04-20T15:41:22.564Z,4.00
2023-04-20T15:51:25.623Z,4.55
2023-04-20T16:01:28.686Z,5.25
2023-04-20T16:11:30.796Z,4.22
2023-04-20T16:21:32.972Z,5.38
2023-04-20T16:31:36.903Z,5.32
2023-04-20T16:41:38.901Z,6.20
2023-04-20T16:51:40.951Z,6.10
2023-04-20T17:01:43.080Z,6.13
2023-04-20T17:11:46.146Z,6.50
2023-04-20T17:21:48.159Z,5.57
2023-04-20T17:31:50.575Z,6.03
2023-04-20T17:41:53.146Z,7.70
2023-04-20T17:51:57.618Z,6.18
2023-04-20T18:02:01.323Z,7.35
2023-04-20T18:12:18.213Z,8.02
2023-04-20T18:22:20.456Z,7.30
2023-04-20T18:32:28.366Z,7.03
2023-04-20T18:42:40.057Z,6.72
2023-04-20T18:52:48.943Z,7.22
2023-04-20T19:02:51.328Z,7.20
2023-04-20T19:12:54.030Z,7.85
2023-04-20T19:22:56.700Z,8.18
2023-04-20T19:33:05.889Z,8.25
2023-04-20T19:43:18.099Z,8.57
2023-04-20T19:53:34.109Z,10.00
2023-04-20T20:03:37.499Z,8.77
2023-04-20T20:13:56.986Z,10.77
2023-04-20T20:34:00.917Z,11.55
2023-04-20T20:44:02.822Z,10.10
2023-04-20T20:54:05.132Z,11.07
2023-04-20T21:04:07.350Z,10.40
2023-04-20T21:14:09.615Z,9.63
2023-04-20T21:24:11.675Z,10.02
2023-04-20T21:34:13.749Z,10.00
2023-04-20T21:44:37.526Z,9.85
2023-04-20T21:54:41.137Z,9.95
2023-04-20T22:05:40.813Z,9.40
2023-04-20T22:15:51.624Z,9.30
2023-04-20T22:26:09.925Z,8.43
2023-04-20T22:36:16.075Z,9.55
2023-04-20T22:46:18.280Z,9.52
2023-04-20T22:56:20.282Z,10.10
2023-04-20T23:06:22.696Z,9.40
2023-04-20T23:16:40.145Z,11.25
2023-04-20T23:38:04.431Z,9.45
2023-04-20T23:48:06.866Z,9.75
2023-04-20T23:58:09.001Z,9.10
